ADDS METAR Data INFO
IDs: Format: Raw Decoded Include TAF

Data at: 0709 UTC 19 Oct 2017

PARC 190656Z AUTO 00000KT 10SM CLR M21/M23 A2924 RMK AO2 SLP980 T12061233 FZRANO
PARC 190556Z AUTO 00000KT 10SM CLR M21/M23 A2923 RMK AO2 SLP980 T12061233 11094 21217 51005 FZRANO
PARC 190456Z AUTO 00000KT 10SM CLR M21/M23 A2923 RMK AO2 SLP979 T12111233 FZRANO
PARC 190356Z AUTO 00000KT 10SM CLR M20/M23 A2922 RMK AO2 SLP977 T12001233 FZRANO
PARC 190256Z AUTO 00000KT 10SM OVC080 M17/M19 A2922 RMK AO2 SLP972 T11721194 53000 FZRANO
PARC 190156Z AUTO 24004KT 10SM OVC080 M16/M17 A2921 RMK AO2 SLP966 T11561172 FZRANO
PARC 190056Z AUTO 07003KT 10SM CLR M12/M17 A2921 RMK AO2 SLP963 T11171167 FZRANO
PARC 182356Z AUTO 00000KT 10SM CLR M09/M14 A2921 RMK AO2 SLP960 60000 T10941144 11094 21183 58001 FZRANO
PARC 182256Z AUTO 00000KT 10SM CLR M11/M14 A2922 RMK AO2 SLP963 T11111139 FZRANO
PARC 182156Z AUTO 02003KT 10SM OVC065 M13/M16 A2922 RMK AO2 SLP964 T11331161 FZRANO
PARC 182056Z AUTO 00000KT 10SM FEW050 OVC070 M14/M16 A2922 RMK AO2 SLP965 60000 T11441161 51004 FZRANO
PARC 181956Z AUTO 00000KT 10SM BKN055 OVC070 M14/M17 A2921 RMK AO2 SLP964 T11441167 FZRANO
PARC 181856Z AUTO 00000KT 10SM FEW033 BKN047 BKN060 M17/M19 A2921 RMK AO2 SNB1757E36 SLP966 P0000 T11721189 FZRANO
PARC 181756Z AUTO 00000KT 9SM BKN055 OVC070 M18/M20 A2920 RMK AO2 SNB1657E54 SLP964 P0000 60000 T11831200 11178 21194 57002 FZRANO
PARC 181656Z AUTO 34003KT 10SM FEW045 BKN055 OVC070 M18/M21 A2921 RMK AO2 SNE14 SLP965 P0000 T11831206 FZRANO
PARC 181556Z AUTO 00000KT 9SM -SN OVC090 M19/M21 A2921 RMK AO2 SNE22B39 SLP966 P0000 T11891211 FZRANO
PARC 181456Z AUTO 34004KT 8SM -SN FEW120 M19/M21 A2921 RMK AO2 SLP966 P0000 60000 T11891211 57008 FZRANO
PARC 181356Z AUTO 35003KT 9SM -SN FEW090 M18/M20 A2922 RMK AO2 SNB06 SLP967 P0000 T11831200 FZRANO
PARC 181256Z AUTO 35003KT 10SM CLR M18/M20 A2923 RMK AO2 SNE37 SLP970 P0000 T11831200 FZRANO
PARC 181156Z AUTO 00000KT 5SM -SN BR FEW025 BKN035 OVC050 M18/M20 A2924 RMK AO2 SLP971 P0000 60000 T11781200 11156 21178 58005 FZRANO
PARC 181056Z AUTO 00000KT 9SM -SN BKN039 OVC070 M17/M19 A2925 RMK AO2 SNB0959 SLP973 P0000 T11671189 FZRANO
PARC 180956Z AUTO 00000KT 5SM BR SCT045 M17/M19 A2925 RMK AO2 SNE03 SLP976 P0000 T11671189 FZRANO
PARC 180856Z AUTO 00000KT 8SM -SN FEW034 BKN041 OVC060 M16/M18 A2926 RMK AO2 SNB11 SLP976 P0000 60000 T11611178 50002 FZRANO
PARC 180756Z AUTO 00000KT 10SM OVC049 M16/M17 A2926 RMK AO2 SLP978 T11561172 411061172 FZRANO